Time;durP1;ratioP1;P1;durP2;ratioP2;P2;SDS_P1;SDS_P2;PMS_P1;PMS_P2;Temp;Humidity;BMP_temperature;BMP_pressure;BME280_temperature;BME280_humidity;BME280_pressure;Samples;Min_cycle;Max_cycle;Signal;HPM_P1;HPM_P2
2021/07/10 00:01:41;;;;;;;2.55;1.90;;;28.00;52.40;;;;;;6177607;28;80876;-65
2021/07/10 00:04:42;;;;;;;4.50;2.00;;;28.00;52.30;;;;;;6173725;28;80900;-65
2021/07/10 00:07:42;;;;;;;3.05;1.75;;;28.00;52.50;;;;;;6170529;28;81504;-66
2021/07/10 00:10:43;;;;;;;2.35;2.08;;;28.00;52.30;;;;;;6182942;28;81340;-66
2021/07/10 00:13:43;;;;;;;2.22;1.95;;;28.00;52.10;;;;;;6182446;28;80388;-66
2021/07/10 00:16:44;;;;;;;1.90;1.80;;;28.00;52.10;;;;;;6177449;28;80601;-65
2021/07/10 00:19:46;;;;;;;3.40;1.90;;;28.00;52.00;;;;;;6177850;28;80703;-65
2021/07/10 00:22:47;;;;;;;2.55;2.03;;;28.00;51.90;;;;;;6172564;28;80356;-65
2021/07/10 00:25:47;;;;;;;2.03;1.83;;;28.00;51.10;;;;;;6181200;28;80738;-65
2021/07/10 00:28:48;;;;;;;1.95;1.60;;;28.00;51.60;;;;;;6182595;28;80209;-65
2021/07/10 00:31:49;;;;;;;2.70;1.90;;;28.00;51.20;;;;;;6172693;28;80446;-65
2021/07/10 00:34:49;;;;;;;4.93;2.17;;;28.00;51.40;;;;;;6174525;28;81613;-65
2021/07/10 00:37:50;;;;;;;2.08;1.75;;;28.00;51.20;;;;;;6175867;28;80430;-66
2021/07/10 00:40:50;;;;;;;1.75;1.60;;;28.00;51.20;;;;;;6180130;28;81521;-66
2021/07/10 00:43:51;;;;;;;2.03;1.80;;;27.90;50.80;;;;;;6181683;28;80502;-66
2021/07/10 00:46:51;;;;;;;2.83;1.55;;;27.90;50.80;;;;;;6176647;28;81375;-66
2021/07/10 00:49:52;;;;;;;3.03;1.60;;;27.90;50.80;;;;;;6175370;28;81594;-66
2021/07/10 00:52:52;;;;;;;1.50;1.40;;;27.90;50.30;;;;;;6171277;28;80955;-66
2021/07/10 00:55:53;;;;;;;1.65;1.50;;;27.90;50.70;;;;;;6173350;28;80661;-66
2021/07/10 00:58:53;;;;;;;1.67;1.20;;;27.90;51.20;;;;;;6177316;28;81389;-66
2021/07/10 01:01:54;;;;;;;5.00;1.42;;;27.90;50.50;;;;;;6179479;28;80252;-66
2021/07/10 01:04:54;;;;;;;1.40;1.30;;;27.90;50.50;;;;;;6176772;28;83278;-66
2021/07/10 01:07:55;;;;;;;2.13;1.45;;;27.90;50.20;;;;;;6178744;28;80336;-65
2021/07/10 01:10:55;;;;;;;4.75;1.30;;;27.90;49.70;;;;;;6179931;28;83580;-65
2021/07/10 01:13:56;;;;;;;1.52;1.35;;;27.90;49.80;;;;;;6178634;28;80942;-66
2021/07/10 01:16:56;;;;;;;2.13;1.58;;;27.90;49.80;;;;;;6178447;28;80819;-65
2021/07/10 01:19:57;;;;;;;2.65;1.50;;;28.00;49.90;;;;;;6181645;28;80357;-65
2021/07/10 01:22:58;;;;;;;1.17;1.10;;;27.90;49.50;;;;;;6177420;28;82727;-66
2021/07/10 01:25:58;;;;;;;1.00;1.00;;;27.90;49.60;;;;;;6179766;28;81003;-65
2021/07/10 01:28:59;;;;;;;1.55;1.42;;;27.80;48.90;;;;;;6180028;28;80329;-66
2021/07/10 01:32:00;;;;;;;1.30;1.20;;;27.80;48.80;;;;;;6177767;28;80998;-65
2021/07/10 01:35:01;;;;;;;1.05;1.05;;;27.80;49.00;;;;;;6177957;28;81406;-65
2021/07/10 01:38:01;;;;;;;1.30;1.15;;;27.90;49.30;;;;;;6181012;28;80823;-66
2021/07/10 01:41:02;;;;;;;3.85;1.40;;;27.80;49.10;;;;;;6170785;28;80734;-66
2021/07/10 01:44:02;;;;;;;2.60;1.40;;;27.80;49.20;;;;;;6179425;28;80663;-66
2021/07/10 01:47:03;;;;;;;1.85;1.20;;;27.80;48.70;;;;;;6181099;28;81228;-66
2021/07/10 01:50:03;;;;;;;2.90;1.45;;;27.70;48.60;;;;;;6179258;28;84010;-65
2021/07/10 01:53:03;;;;;;;1.23;1.13;;;27.70;48.50;;;;;;6176423;28;80841;-66
2021/07/10 01:56:04;;;;;;;1.90;1.15;;;27.70;48.70;;;;;;6180843;28;80586;-65
2021/07/10 01:59:05;;;;;;;1.55;1.20;;;27.70;48.40;;;;;;6180930;28;80897;-65
2021/07/10 02:02:05;;;;;;;5.20;1.08;;;27.70;48.50;;;;;;6179447;28;81578;-66
2021/07/10 02:05:06;;;;;;;1.20;1.10;;;27.70;48.40;;;;;;6179101;28;81532;-65
2021/07/10 02:08:08;;;;;;;1.00;1.00;;;27.70;48.50;;;;;;6174720;28;80401;-65
2021/07/10 02:11:08;;;;;;;3.97;1.10;;;27.60;48.10;;;;;;6169263;28;81483;-65
2021/07/10 02:14:09;;;;;;;1.65;1.13;;;27.60;48.20;;;;;;6180688;28;81362;-65
2021/07/10 02:17:09;;;;;;;1.67;1.58;;;27.60;48.20;;;;;;6173687;28;81136;-65
2021/07/10 02:20:10;;;;;;;3.42;1.20;;;27.50;48.10;;;;;;6185481;28;80742;-64
2021/07/10 02:23:10;;;;;;;0.95;0.93;;;27.50;48.00;;;;;;6181656;28;80589;-64
2021/07/10 02:26:11;;;;;;;1.17;1.10;;;27.50;47.80;;;;;;6173418;28;80568;-65
2021/07/10 02:29:11;;;;;;;1.77;1.15;;;27.50;48.10;;;;;;6167941;28;80685;-64
2021/07/10 02:32:12;;;;;;;4.60;1.27;;;27.50;48.10;;;;;;6176409;28;81434;-65
2021/07/10 02:35:12;;;;;;;4.03;1.20;;;27.60;48.20;;;;;;6177118;28;80781;-64
2021/07/10 02:38:13;;;;;;;3.03;1.30;;;27.50;48.20;;;;;;6182878;28;81597;-66
2021/07/10 02:41:14;;;;;;;1.58;1.20;;;27.50;48.40;;;;;;6175014;28;80804;-66
2021/07/10 02:44:14;;;;;;;3.67;1.30;;;27.50;48.20;;;;;;6173879;28;81757;-65
2021/07/10 02:47:15;;;;;;;6.57;1.60;;;27.60;48.30;;;;;;6182967;28;81247;-66
2021/07/10 02:50:15;;;;;;;2.65;1.20;;;27.60;48.30;;;;;;6183532;28;80480;-66
2021/07/10 02:53:15;;;;;;;1.92;1.50;;;27.70;48.50;;;;;;6192791;28;83083;-66
2021/07/10 02:56:16;;;;;;;1.50;1.10;;;27.70;48.40;;;;;;6182370;28;80117;-65
2021/07/10 02:59:16;;;;;;;3.55;1.15;;;27.70;48.40;;;;;;6179666;28;83543;-65
2021/07/10 03:02:17;;;;;;;1.45;1.00;;;27.80;48.60;;;;;;6183286;28;80600;-65
2021/07/10 03:05:18;;;;;;;2.00;1.13;;;27.80;48.70;;;;;;6178988;28;80389;-66
2021/07/10 03:08:21;;;;;;;1.33;1.23;;;27.80;48.70;;;;;;6174700;28;86528;-66
2021/07/10 03:11:22;;;;;;;2.88;1.10;;;27.80;48.80;;;;;;6176012;28;81928;-65
2021/07/10 03:14:22;;;;;;;1.83;1.25;;;27.80;48.70;;;;;;6180604;28;81450;-65
2021/07/10 03:17:23;;;;;;;1.67;1.23;;;27.80;48.90;;;;;;6173936;28;81116;-65
2021/07/10 03:20:23;;;;;;;2.70;1.30;;;27.80;48.70;;;;;;6193725;28;80055;-66
2021/07/10 03:23:24;;;;;;;2.10;1.38;;;27.80;48.70;;;;;;6178480;28;80424;-65
2021/07/10 03:26:24;;;;;;;5.93;1.88;;;27.80;48.70;;;;;;6184182;28;80584;-65
2021/07/10 03:29:25;;;;;;;1.60;1.48;;;27.80;49.00;;;;;;6176504;28;81399;-65
2021/07/10 03:32:25;;;;;;;2.60;1.27;;;27.80;49.00;;;;;;6177524;28;80834;-65
2021/07/10 03:35:26;;;;;;;3.40;1.52;;;27.80;49.00;;;;;;6178673;28;80385;-65
2021/07/10 03:38:26;;;;;;;4.07;1.40;;;27.80;49.20;;;;;;6175031;28;81524;-66
2021/07/10 03:41:27;;;;;;;4.55;1.58;;;27.80;48.90;;;;;;6179151;28;80591;-66
2021/07/10 03:44:27;;;;;;;1.60;1.50;;;27.80;49.10;;;;;;6195920;28;81705;-65
2021/07/10 03:47:28;;;;;;;3.25;1.50;;;27.80;49.10;;;;;;6178118;28;81428;-65
2021/07/10 03:50:28;;;;;;;3.38;1.50;;;27.80;49.00;;;;;;6178903;28;80608;-64
2021/07/10 03:53:29;;;;;;;3.50;1.48;;;27.80;49.20;;;;;;6183721;28;80385;-64
2021/07/10 03:56:29;;;;;;;3.70;1.75;;;27.80;48.90;;;;;;6183909;28;80566;-65
2021/07/10 03:59:30;;;;;;;3.22;1.90;;;27.80;49.10;;;;;;6179625;28;81082;-65
2021/07/10 04:02:30;;;;;;;2.58;1.90;;;27.80;49.00;;;;;;6173985;28;80524;-64
2021/07/10 04:05:31;;;;;;;3.65;1.60;;;27.80;49.00;;;;;;6171882;28;81205;-65
2021/07/10 04:08:31;;;;;;;2.35;1.45;;;27.90;49.00;;;;;;6182095;28;80852;-65
2021/07/10 04:11:32;;;;;;;2.42;1.77;;;27.80;49.00;;;;;;6176063;28;80717;-65
2021/07/10 04:14:35;;;;;;;1.95;1.80;;;27.80;49.00;;;;;;6173749;28;80456;-65
2021/07/10 04:17:36;;;;;;;1.40;1.30;;;27.80;49.00;;;;;;6186156;28;80372;-64
2021/07/10 04:20:37;;;;;;;1.67;1.40;;;27.80;49.30;;;;;;6182208;28;80695;-65
2021/07/10 04:23:37;;;;;;;2.08;1.50;;;27.80;49.50;;;;;;6181150;28;80629;-64
2021/07/10 04:26:38;;;;;;;9.20;1.50;;;27.80;49.50;;;;;;6177916;28;80782;-62
2021/07/10 04:29:38;;;;;;;4.25;1.35;;;27.80;49.70;;;;;;6174308;28;85136;-65
2021/07/10 04:32:39;;;;;;;4.22;1.35;;;27.80;49.50;;;;;;6177001;28;80413;-65
2021/07/10 04:35:39;;;;;;;9.65;2.20;;;27.80;49.60;;;;;;6177413;28;80547;-64
2021/07/10 04:38:40;;;;;;;5.18;1.75;;;27.80;49.80;;;;;;6177412;28;80932;-65
2021/07/10 04:41:40;;;;;;;4.80;1.48;;;27.70;48.90;;;;;;6175662;28;80648;-63
2021/07/10 04:44:41;;;;;;;4.40;1.73;;;27.70;48.80;;;;;;6178851;28;81863;-63
2021/07/10 04:47:41;;;;;;;2.60;1.40;;;27.60;49.00;;;;;;6173793;28;80736;-63
2021/07/10 04:50:42;;;;;;;2.95;1.60;;;27.60;48.70;;;;;;6173766;28;80881;-63
2021/07/10 04:53:42;;;;;;;5.97;1.48;;;27.60;48.50;;;;;;6175867;28;80432;-63
2021/07/10 04:56:43;;;;;;;2.42;1.58;;;27.60;48.70;;;;;;6178407;28;81450;-63
2021/07/10 04:59:44;;;;;;;2.60;1.40;;;27.60;48.20;;;;;;6179218;28;80791;-64
2021/07/10 05:02:44;;;;;;;3.13;1.63;;;27.60;48.50;;;;;;6170297;28;83100;-64
2021/07/10 05:05:45;;;;;;;3.95;1.50;;;27.60;48.20;;;;;;6179902;28;83471;-64
2021/07/10 05:08:45;;;;;;;4.35;1.60;;;27.70;48.70;;;;;;6181651;28;81296;-63
2021/07/10 05:11:46;;;;;;;3.05;1.38;;;27.70;48.90;;;;;;6170033;28;80637;-63
2021/07/10 05:14:46;;;;;;;1.45;1.30;;;27.60;48.50;;;;;;6172729;28;80358;-64
2021/07/10 05:17:47;;;;;;;2.40;1.55;;;27.60;48.40;;;;;;6168397;28;80300;-65
2021/07/10 05:20:47;;;;;;;4.43;1.27;;;27.60;48.60;;;;;;6183021;28;80420;-64
2021/07/10 05:23:48;;;;;;;1.92;1.40;;;27.70;48.40;;;;;;6176443;28;81486;-65
2021/07/10 05:26:48;;;;;;;1.70;1.33;;;27.60;48.00;;;;;;6170474;28;81086;-64
2021/07/10 05:29:49;;;;;;;1.38;1.13;;;27.60;48.00;;;;;;6176988;28;80245;-64
2021/07/10 05:32:49;;;;;;;1.40;1.30;;;27.70;47.80;;;;;;6169069;28;80971;-65
2021/07/10 05:35:50;;;;;;;3.40;1.40;;;27.70;48.00;;;;;;6172045;28;80405;-65
2021/07/10 05:38:51;;;;;;;1.80;1.60;;;27.70;47.70;;;;;;6175007;28;80288;-64
2021/07/10 05:41:51;;;;;;;4.70;1.30;;;27.70;47.90;;;;;;6173447;28;81002;-65
2021/07/10 05:44:52;;;;;;;1.70;1.60;;;27.70;47.90;;;;;;6177371;28;80426;-64
2021/07/10 05:47:52;;;;;;;2.60;1.42;;;27.70;48.10;;;;;;6167171;28;81420;-63
2021/07/10 05:50:53;;;;;;;2.95;1.60;;;27.70;47.70;;;;;;6163972;28;80411;-63
2021/07/10 05:53:53;;;;;;;3.30;1.85;;;27.70;48.10;;;;;;6170969;28;80408;-63
2021/07/10 05:56:54;;;;;;;4.47;2.17;;;27.70;47.70;;;;;;6179339;28;83086;-65
2021/07/10 05:59:54;;;;;;;2.22;1.58;;;27.70;48.10;;;;;;6166069;28;82462;-64
2021/07/10 06:02:55;;;;;;;3.03;1.38;;;27.70;48.10;;;;;;6172487;28;80225;-64
2021/07/10 06:05:55;;;;;;;2.45;1.65;;;27.70;48.00;;;;;;6167312;28;80882;-65
2021/07/10 06:08:56;;;;;;;3.63;1.90;;;27.70;47.50;;;;;;6178736;28;80924;-66
2021/07/10 06:11:56;;;;;;;5.65;1.58;;;27.70;47.60;;;;;;6175146;28;80770;-65
2021/07/10 06:14:57;;;;;;;4.28;1.60;;;27.80;47.70;;;;;;6173564;28;81857;-63
2021/07/10 06:17:57;;;;;;;4.82;2.03;;;27.80;47.90;;;;;;6174755;28;80089;-64
2021/07/10 06:20:58;;;;;;;8.05;2.97;;;27.80;47.80;;;;;;6179390;28;80513;-64
2021/07/10 06:23:58;;;;;;;3.08;2.17;;;27.80;48.20;;;;;;6173007;28;84277;-63
2021/07/10 06:26:59;;;;;;;6.25;2.50;;;27.70;48.40;;;;;;6172635;28;80573;-63
2021/07/10 06:29:59;;;;;;;7.47;2.72;;;27.70;48.20;;;;;;6170333;28;81079;-63
2021/07/10 06:33:00;;;;;;;6.20;2.30;;;27.80;48.50;;;;;;6176655;28;80488;-63
2021/07/10 06:36:00;;;;;;;2.58;1.70;;;27.80;48.40;;;;;;6177730;28;83495;-63
2021/07/10 06:39:01;;;;;;;6.25;2.20;;;27.80;48.40;;;;;;6175582;28;80321;-63
2021/07/10 06:42:01;;;;;;;3.45;1.85;;;27.80;47.90;;;;;;6173376;28;80594;-63
2021/07/10 06:45:02;;;;;;;4.95;2.13;;;27.80;47.90;;;;;;6170861;28;81329;-64
2021/07/10 06:48:02;;;;;;;7.93;1.80;;;27.80;47.50;;;;;;6170989;28;82374;-65
2021/07/10 06:51:03;;;;;;;2.30;1.40;;;27.80;47.10;;;;;;6169987;28;80343;-63
2021/07/10 06:54:03;;;;;;;6.50;1.80;;;27.80;47.50;;;;;;6169536;28;80992;-65
2021/07/10 06:57:05;;;;;;;2.60;1.70;;;27.70;47.90;;;;;;6177133;28;80802;-64
2021/07/10 07:00:05;;;;;;;9.38;1.77;;;27.70;48.10;;;;;;6171434;28;80252;-65
2021/07/10 07:03:06;;;;;;;3.22;1.50;;;27.80;47.90;;;;;;6182501;28;80733;-65
2021/07/10 07:06:06;;;;;;;4.93;2.10;;;27.80;47.30;;;;;;6172071;28;80443;-66
2021/07/10 07:09:07;;;;;;;1.83;1.73;;;27.70;47.30;;;;;;6171694;28;80822;-65
2021/07/10 07:12:07;;;;;;;5.43;1.67;;;27.80;48.10;;;;;;6186354;28;81027;-65
2021/07/10 07:15:08;;;;;;;4.53;1.80;;;27.70;47.90;;;;;;6168767;28;81202;-64
2021/07/10 07:18:09;;;;;;;1.48;1.38;;;27.70;47.80;;;;;;6173519;28;80513;-63
2021/07/10 07:21:09;;;;;;;29.00;10.77;;;27.70;47.20;;;;;;6181335;28;80684;-64
2021/07/10 07:24:09;;;;;;;47.08;18.30;;;27.70;47.70;;;;;;6164890;28;83792;-63
2021/07/10 07:27:10;;;;;;;49.70;19.70;;;27.70;47.60;;;;;;6171265;28;83948;-63
2021/07/10 07:30:11;;;;;;;33.30;12.10;;;27.80;48.00;;;;;;6171296;28;82999;-63
2021/07/10 07:33:11;;;;;;;13.27;6.05;;;27.70;48.10;;;;;;6171897;28;83108;-63
2021/07/10 07:36:12;;;;;;;17.48;8.13;;;27.80;46.90;;;;;;6175465;28;82891;-64
2021/07/10 07:39:12;;;;;;;35.20;12.07;;;27.80;47.10;;;;;;6179394;28;80638;-63
2021/07/10 07:42:13;;;;;;;34.13;12.30;;;27.80;47.10;;;;;;6172347;28;83079;-62
2021/07/10 07:45:13;;;;;;;30.83;12.10;;;27.80;47.60;;;;;;6174304;28;85590;-64
2021/07/10 07:48:14;;;;;;;18.63;7.95;;;27.80;47.50;;;;;;6171625;28;83015;-63
2021/07/10 07:51:21;;;;;;;14.98;7.10;;;27.70;47.40;;;;;;6182454;28;82713;-64
2021/07/10 07:54:22;;;;;;;8.85;4.93;;;27.70;47.70;;;;;;6171186;28;80552;-63
2021/07/10 07:57:23;;;;;;;15.13;5.20;;;27.80;48.40;;;;;;6169077;28;82939;-63
2021/07/10 08:00:23;;;;;;;9.82;4.95;;;27.80;47.80;;;;;;6182501;28;82580;-62
2021/07/10 08:03:24;;;;;;;12.23;4.50;;;27.80;47.60;;;;;;6176262;28;80449;-64
2021/07/10 08:06:24;;;;;;;10.43;3.88;;;27.80;48.00;;;;;;6171557;28;80662;-63
2021/07/10 08:09:25;;;;;;;9.25;2.88;;;27.80;47.70;;;;;;6173690;28;81765;-64
2021/07/10 08:12:25;;;;;;;10.93;2.90;;;27.80;47.60;;;;;;6178873;28;80617;-63
2021/07/10 08:15:26;;;;;;;13.02;2.88;;;27.80;47.80;;;;;;6177648;28;81383;-63
2021/07/10 08:18:26;;;;;;;7.95;2.15;;;27.80;48.00;;;;;;6166092;28;83029;-63
2021/07/10 08:21:29;;;;;;;3.60;2.05;;;27.80;47.70;;;;;;6168774;28;80480;-63
2021/07/10 08:24:29;;;;;;;3.58;1.98;;;27.80;48.40;;;;;;6170850;28;81104;-63
2021/07/10 08:27:30;;;;;;;2.20;1.73;;;27.80;47.60;;;;;;6162976;28;80422;-63
2021/07/10 08:30:30;;;;;;;3.10;2.03;;;27.80;47.60;;;;;;6168440;28;81562;-65
2021/07/10 08:33:31;;;;;;;4.90;2.08;;;27.80;47.50;;;;;;6166557;28;81553;-65
2021/07/10 08:36:31;;;;;;;3.78;1.92;;;27.80;47.40;;;;;;6168249;28;80588;-65
2021/07/10 08:39:32;;;;;;;7.22;2.20;;;27.80;47.30;;;;;;6163452;28;80827;-64
2021/07/10 08:42:32;;;;;;;2.30;1.70;;;27.80;47.40;;;;;;6167510;28;80672;-65
2021/07/10 08:45:33;;;;;;;1.88;1.60;;;27.80;47.30;;;;;;6181531;28;81437;-64
2021/07/10 08:48:33;;;;;;;4.90;2.30;;;27.80;47.30;;;;;;6175012;28;81089;-65
2021/07/10 08:51:34;;;;;;;3.80;2.00;;;27.80;47.10;;;;;;6173594;28;83121;-65
2021/07/10 08:54:34;;;;;;;1.90;1.73;;;27.80;47.00;;;;;;6172842;28;80662;-64
2021/07/10 08:57:35;;;;;;;1.80;1.70;;;27.90;47.20;;;;;;6179795;28;80508;-64
2021/07/10 09:00:36;;;;;;;2.22;2.00;;;27.90;46.80;;;;;;6178915;28;80288;-64
2021/07/10 09:03:36;;;;;;;2.05;1.70;;;27.90;46.70;;;;;;6179317;28;80577;-65
2021/07/10 09:06:37;;;;;;;2.40;1.90;;;27.90;46.30;;;;;;6181067;28;80452;-65
2021/07/10 09:09:37;;;;;;;1.60;1.50;;;27.90;46.40;;;;;;6178031;28;80471;-65
2021/07/10 09:12:39;;;;;;;4.80;1.70;;;27.90;46.20;;;;;;6180518;28;80616;-65
2021/07/10 09:15:39;;;;;;;5.88;1.80;;;27.80;46.10;;;;;;6177708;28;80850;-65
2021/07/10 09:18:40;;;;;;;2.60;1.90;;;27.80;45.90;;;;;;6181945;28;80862;-66
2021/07/10 09:21:40;;;;;;;2.63;1.67;;;27.80;45.70;;;;;;6168396;28;80642;-65
2021/07/10 09:24:42;;;;;;;3.10;1.70;;;27.80;45.60;;;;;;6179005;28;80614;-65
2021/07/10 09:27:43;;;;;;;1.55;1.40;;;27.80;45.60;;;;;;6181131;28;81447;-65
2021/07/10 09:30:43;;;;;;;1.48;1.38;;;27.80;45.80;;;;;;6176129;28;80944;-65
2021/07/10 09:33:44;;;;;;;1.70;1.58;;;27.90;46.00;;;;;;6169287;28;80599;-64
2021/07/10 09:36:44;;;;;;;1.20;1.20;;;27.90;46.10;;;;;;6181885;28;80539;-65
2021/07/10 09:39:45;;;;;;;1.55;1.35;;;27.90;46.30;;;;;;6180686;28;80600;-65
2021/07/10 09:42:48;;;;;;;1.40;1.30;;;27.90;46.10;;;;;;6173770;28;80312;-66
2021/07/10 09:45:48;;;;;;;2.25;1.60;;;27.80;45.50;;;;;;6168988;28;83080;-64
2021/07/10 09:48:49;;;;;;;2.33;1.50;;;27.80;45.80;;;;;;6176048;28;80193;-65
2021/07/10 09:51:49;;;;;;;2.60;1.58;;;27.90;46.20;;;;;;6172343;28;80909;-65
2021/07/10 09:54:50;;;;;;;3.90;2.72;;;27.90;46.60;;;;;;6173978;28;81426;-62
2021/07/10 09:57:50;;;;;;;15.57;10.30;;;27.90;47.00;;;;;;6180110;28;80401;-64
2021/07/10 10:00:51;;;;;;;23.98;15.90;;;27.90;47.40;;;;;;6175926;28;82862;-63
2021/07/10 10:03:51;;;;;;;25.52;15.32;;;27.90;47.20;;;;;;6178835;28;83804;-65
2021/07/10 10:06:52;;;;;;;11.77;7.22;;;27.90;47.70;;;;;;6169666;28;83413;-65
2021/07/10 10:09:53;;;;;;;10.45;5.90;;;27.80;46.70;;;;;;6176800;28;82803;-64
2021/07/10 10:12:53;;;;;;;9.48;4.50;;;27.90;46.30;;;;;;6193462;28;81411;-64
2021/07/10 10:15:54;;;;;;;18.00;13.75;;;27.90;46.30;;;;;;6168650;28;84970;-65
2021/07/10 10:18:55;;;;;;;7.95;5.70;;;27.80;46.70;;;;;;6167269;28;82848;-65
2021/07/10 10:21:55;;;;;;;14.32;8.55;;;27.90;46.50;;;;;;6163211;28;82827;-64
2021/07/10 10:24:56;;;;;;;6.40;4.93;;;27.90;46.90;;;;;;6171933;28;80885;-64
2021/07/10 10:27:56;;;;;;;4.95;3.80;;;28.00;46.40;;;;;;6164836;28;81134;-64
2021/07/10 10:30:57;;;;;;;7.53;3.65;;;28.00;46.20;;;;;;6169414;28;80379;-64
2021/07/10 10:33:57;;;;;;;4.90;3.35;;;28.10;46.40;;;;;;6167454;28;81207;-66
2021/07/10 10:36:58;;;;;;;5.13;3.85;;;28.10;46.70;;;;;;6171656;28;80496;-64
2021/07/10 10:39:58;;;;;;;4.93;3.03;;;28.10;47.00;;;;;;6165588;28;81473;-64
2021/07/10 10:42:59;;;;;;;5.47;2.63;;;28.10;47.00;;;;;;6171392;28;82419;-65
2021/07/10 10:45:59;;;;;;;2.63;2.22;;;28.10;47.10;;;;;;6174240;28;81062;-64
2021/07/10 10:49:00;;;;;;;2.25;2.05;;;28.10;47.30;;;;;;6180454;28;80592;-64
2021/07/10 10:52:00;;;;;;;2.65;1.90;;;28.00;46.90;;;;;;6186524;28;81610;-63
2021/07/10 10:55:01;;;;;;;4.45;2.10;;;28.10;47.00;;;;;;6170995;28;81027;-63
2021/07/10 10:58:01;;;;;;;3.83;2.00;;;28.10;47.20;;;;;;6177404;28;81030;-63
2021/07/10 11:01:02;;;;;;;2.65;1.85;;;28.10;47.40;;;;;;6181306;28;80749;-64
2021/07/10 11:04:02;;;;;;;4.13;1.95;;;28.10;47.30;;;;;;6181615;28;81141;-64
2021/07/10 11:07:03;;;;;;;4.10;2.75;;;28.10;47.20;;;;;;6176987;28;80386;-65
2021/07/10 11:10:04;;;;;;;2.88;2.53;;;28.10;46.20;;;;;;6174539;28;81724;-63
2021/07/10 11:13:04;;;;;;;5.78;3.78;;;28.10;45.90;;;;;;6170937;28;80564;-65
2021/07/10 11:16:05;;;;;;;10.88;6.40;;;28.10;46.40;;;;;;6179399;28;80358;-65
2021/07/10 11:19:05;;;;;;;18.73;11.48;;;28.10;46.30;;;;;;6168358;28;82267;-66
2021/07/10 11:22:06;;;;;;;15.65;10.75;;;28.10;46.60;;;;;;6184187;28;83123;-65
2021/07/10 11:25:06;;;;;;;17.00;11.52;;;28.10;47.20;;;;;;6173479;28;83285;-65
2021/07/10 11:28:07;;;;;;;15.18;10.82;;;28.10;47.60;;;;;;6170416;28;82934;-64
2021/07/10 11:31:08;;;;;;;17.02;12.02;;;28.10;47.30;;;;;;6177072;28;83649;-67
2021/07/10 11:34:08;;;;;;;23.88;12.65;;;28.10;47.70;;;;;;6174803;28;83102;-65
2021/07/10 11:37:09;;;;;;;18.17;11.55;;;28.10;48.00;;;;;;6167977;28;89452;-64
2021/07/10 11:40:09;;;;;;;14.90;10.57;;;28.20;48.20;;;;;;6181534;28;85640;-64
2021/07/10 11:43:10;;;;;;;14.50;10.13;;;28.10;48.70;;;;;;6171976;28;83084;-63
2021/07/10 11:46:10;;;;;;;13.30;9.48;;;28.20;48.40;;;;;;6170489;28;83010;-64
2021/07/10 11:49:11;;;;;;;11.88;8.25;;;28.10;48.50;;;;;;6167686;28;81669;-63
2021/07/10 11:52:11;;;;;;;13.52;8.30;;;28.20;48.50;;;;;;6178469;28;80609;-64
2021/07/10 11:55:12;;;;;;;11.63;7.93;;;28.20;48.40;;;;;;6182909;28;80926;-64
2021/07/10 11:58:12;;;;;;;9.25;6.97;;;28.20;48.40;;;;;;6174954;28;80473;-64
2021/07/10 12:01:14;;;;;;;8.88;7.07;;;28.20;48.40;;;;;;6174706;28;80324;-64
2021/07/10 12:04:14;;;;;;;11.07;6.53;;;28.20;48.40;;;;;;6173891;28;81058;-65
2021/07/10 12:07:15;;;;;;;8.02;5.72;;;28.20;48.40;;;;;;6175400;28;81056;-65
2021/07/10 12:10:17;;;;;;;9.45;5.07;;;28.30;48.50;;;;;;6170132;28;81442;-65
2021/07/10 12:13:22;;;;;;;8.57;5.07;;;28.30;48.60;;;;;;6176393;28;80147;-64
2021/07/10 12:16:22;;;;;;;7.57;5.23;;;28.20;49.10;;;;;;6172329;28;80848;-64
2021/07/10 12:19:23;;;;;;;7.05;4.57;;;28.30;48.60;;;;;;6176733;28;81255;-65
2021/07/10 12:22:23;;;;;;;9.60;4.78;;;28.30;48.70;;;;;;6173523;28;80263;-65
2021/07/10 12:25:24;;;;;;;7.00;4.03;;;28.30;48.70;;;;;;6176714;28;80773;-64
2021/07/10 12:28:24;;;;;;;5.93;4.13;;;28.30;48.70;;;;;;6176704;28;80738;-65
2021/07/10 12:31:29;;;;;;;4.88;4.13;;;28.30;48.70;;;;;;6169714;28;80328;-65
2021/07/10 12:34:30;;;;;;;8.80;3.87;;;28.30;48.70;;;;;;6170352;28;80180;-65
2021/07/10 12:37:30;;;;;;;4.10;3.47;;;28.30;48.70;;;;;;6170117;28;82399;-64
2021/07/10 12:40:31;;;;;;;4.70;4.03;;;28.30;48.80;;;;;;6174180;28;80075;-64
2021/07/10 12:43:31;;;;;;;5.78;3.75;;;28.30;48.90;;;;;;6174482;28;81786;-64
2021/07/10 12:46:32;;;;;;;4.68;3.40;;;28.30;48.90;;;;;;6169650;28;82674;-64
2021/07/10 12:49:32;;;;;;;5.40;3.40;;;28.30;48.80;;;;;;6175497;28;80245;-64
2021/07/10 12:52:35;;;;;;;4.32;3.22;;;28.30;48.70;;;;;;6173577;28;83044;-64
2021/07/10 12:55:48;;;;;;;7.43;3.00;;;28.30;48.70;;;;;;6179503;28;81435;-64
2021/07/10 12:58:50;;;;;;;3.80;2.92;;;28.30;48.70;;;;;;6176102;28;80757;-64
2021/07/10 13:01:50;;;;;;;4.43;3.40;;;28.30;48.70;;;;;;6175380;28;80886;-64
2021/07/10 13:04:52;;;;;;;3.13;2.83;;;28.30;48.70;;;;;;6175562;28;81831;-64
2021/07/10 13:07:52;;;;;;;4.68;3.13;;;28.30;48.60;;;;;;6176014;28;83257;-65
2021/07/10 13:10:53;;;;;;;2.78;2.58;;;28.30;48.80;;;;;;6171493;28;81600;-65
2021/07/10 13:13:56;;;;;;;2.78;2.40;;;28.30;49.00;;;;;;6166528;28;80258;-64
2021/07/10 13:16:56;;;;;;;2.80;2.58;;;28.30;49.30;;;;;;6177088;28;81172;-66
2021/07/10 13:19:57;;;;;;;4.95;2.85;;;28.30;49.50;;;;;;6181715;28;80441;-65
2021/07/10 13:22:57;;;;;;;8.43;3.55;;;28.30;49.60;;;;;;6169203;28;80544;-65
2021/07/10 13:25:58;;;;;;;7.70;3.47;;;28.30;49.50;;;;;;6171533;28;80465;-65
2021/07/10 13:28:58;;;;;;;6.32;3.53;;;28.40;48.70;;;;;;6178228;28;80971;-64
2021/07/10 13:31:59;;;;;;;3.92;3.13;;;28.40;48.50;;;;;;6169182;28;80258;-64
2021/07/10 13:35:00;;;;;;;5.10;3.30;;;28.30;48.20;;;;;;6175794;28;81142;-65
2021/07/10 13:38:00;;;;;;;4.53;2.72;;;28.30;48.50;;;;;;6169241;28;80559;-66
2021/07/10 13:41:01;;;;;;;5.53;2.63;;;28.40;48.70;;;;;;6173995;28;80062;-66
2021/07/10 13:44:01;;;;;;;3.22;2.40;;;28.40;48.50;;;;;;6171048;28;81805;-66
2021/07/10 13:47:02;;;;;;;2.38;2.10;;;28.40;48.00;;;;;;6172820;28;81816;-66
2021/07/10 13:50:05;;;;;;;4.40;2.05;;;28.30;47.80;;;;;;6169233;28;81071;-64
2021/07/10 13:53:05;;;;;;;2.60;2.13;;;28.30;46.70;;;;;;6179098;28;80572;-64
2021/07/10 13:56:06;;;;;;;1.80;1.70;;;28.30;47.00;;;;;;6187290;28;81998;-67
2021/07/10 13:59:06;;;;;;;2.95;1.90;;;28.30;45.90;;;;;;6170966;28;80533;-65
2021/07/10 14:02:07;;;;;;;3.10;1.70;;;28.30;46.00;;;;;;6173471;28;80357;-65
2021/07/10 14:05:07;;;;;;;2.60;2.05;;;28.30;45.50;;;;;;6173827;28;81523;-66
2021/07/10 14:08:08;;;;;;;2.50;1.75;;;28.30;45.70;;;;;;6175545;28;81545;-67
2021/07/10 14:11:08;;;;;;;3.55;1.90;;;28.30;46.00;;;;;;6177268;28;80540;-66
2021/07/10 14:14:09;;;;;;;3.70;2.00;;;28.30;46.50;;;;;;6168235;28;81895;-67
2021/07/10 14:17:09;;;;;;;2.88;1.88;;;28.30;46.50;;;;;;6186870;28;83025;-65
2021/07/10 14:20:10;;;;;;;3.53;2.05;;;28.30;46.50;;;;;;6179722;28;80233;-68
2021/07/10 14:23:10;;;;;;;2.05;1.75;;;28.30;46.60;;;;;;6183178;28;81009;-66
2021/07/10 14:26:11;;;;;;;2.50;1.90;;;28.40;47.20;;;;;;6181064;28;81401;-67
2021/07/10 14:29:12;;;;;;;1.60;1.50;;;28.40;47.00;;;;;;6167378;28;80198;-66
2021/07/10 14:32:13;;;;;;;2.17;1.98;;;28.40;47.10;;;;;;6170809;28;81492;-66
2021/07/10 14:35:14;;;;;;;3.55;1.85;;;28.40;47.00;;;;;;6167607;28;81653;-66
2021/07/10 14:38:14;;;;;;;2.08;1.63;;;28.40;46.70;;;;;;6175750;28;81024;-65
2021/07/10 14:41:15;;;;;;;3.08;1.80;;;28.40;46.20;;;;;;6172230;28;80852;-66
2021/07/10 14:44:15;;;;;;;3.42;1.92;;;28.40;46.00;;;;;;6172248;28;80588;-64
2021/07/10 14:47:16;;;;;;;2.83;1.65;;;28.40;45.80;;;;;;6175299;28;80158;-65
2021/07/10 14:50:17;;;;;;;2.10;1.60;;;28.30;45.90;;;;;;6170129;28;80723;-64
2021/07/10 14:53:17;;;;;;;1.80;1.70;;;28.40;46.10;;;;;;6170277;28;80658;-64
2021/07/10 14:56:18;;;;;;;2.55;2.05;;;28.30;45.90;;;;;;6173308;28;80355;-63
2021/07/10 14:59:18;;;;;;;4.00;2.17;;;28.30;45.80;;;;;;6172937;28;81632;-64
2021/07/10 15:02:19;;;;;;;2.08;1.90;;;28.30;46.10;;;;;;6175943;28;80783;-63
2021/07/10 15:05:20;;;;;;;2.17;2.00;;;28.30;46.50;;;;;;6178845;28;81079;-64
2021/07/10 15:08:20;;;;;;;5.85;2.10;;;28.30;46.70;;;;;;6178522;28;80563;-64
2021/07/10 15:11:21;;;;;;;2.03;1.92;;;28.30;46.70;;;;;;6175898;28;80488;-63
2021/07/10 15:14:21;;;;;;;2.78;1.77;;;28.30;46.60;;;;;;6172224;28;80383;-64
2021/07/10 15:17:22;;;;;;;2.90;2.10;;;28.30;46.80;;;;;;6175022;28;81314;-64
2021/07/10 15:20:22;;;;;;;2.30;2.00;;;28.30;46.70;;;;;;6186064;28;80590;-64
2021/07/10 15:23:23;;;;;;;4.18;2.45;;;28.30;46.50;;;;;;6177799;28;80590;-63
2021/07/10 15:26:23;;;;;;;3.65;2.70;;;28.30;46.40;;;;;;6182359;28;80639;-64
2021/07/10 15:29:24;;;;;;;9.52;3.22;;;28.30;46.40;;;;;;6181120;28;80261;-63
2021/07/10 15:32:24;;;;;;;3.50;3.20;;;28.30;46.40;;;;;;6178802;28;80408;-64
2021/07/10 15:35:25;;;;;;;3.47;3.20;;;28.30;46.30;;;;;;6182705;28;80915;-63
2021/07/10 15:38:25;;;;;;;4.20;3.78;;;28.30;46.40;;;;;;6180663;28;80653;-64